sensor_id;sensor_type;location;lat;lon;timestamp;P1;durP1;ratioP1;P2;durP2;ratioP2
55455;SDS011;63021;52.836;6.376;2022-11-25T00:02:10;11.65;;;3.45;;
55455;SDS011;63021;52.836;6.376;2022-11-25T00:04:35;16.67;;;3.65;;
55455;SDS011;63021;52.836;6.376;2022-11-25T00:07:04;20.83;;;4.30;;
55455;SDS011;63021;52.836;6.376;2022-11-25T00:09:29;11.15;;;3.60;;
55455;SDS011;63021;52.836;6.376;2022-11-25T00:11:54;22.55;;;5.85;;
55455;SDS011;63021;52.836;6.376;2022-11-25T00:14:20;13.63;;;4.32;;
55455;SDS011;63021;52.836;6.376;2022-11-25T00:16:45;19.75;;;4.60;;
55455;SDS011;63021;52.836;6.376;2022-11-25T00:19:10;18.45;;;4.32;;
55455;SDS011;63021;52.836;6.376;2022-11-25T00:21:36;24.42;;;7.88;;
55455;SDS011;63021;52.836;6.376;2022-11-25T00:24:03;19.33;;;5.57;;
55455;SDS011;63021;52.836;6.376;2022-11-25T00:26:31;20.52;;;5.15;;
55455;SDS011;63021;52.836;6.376;2022-11-25T00:28:58;18.98;;;3.67;;
55455;SDS011;63021;52.836;6.376;2022-11-25T00:31:26;18.50;;;5.95;;
55455;SDS011;63021;52.836;6.376;2022-11-25T00:33:54;19.50;;;4.45;;
55455;SDS011;63021;52.836;6.376;2022-11-25T00:36:20;22.00;;;6.07;;
55455;SDS011;63021;52.836;6.376;2022-11-25T00:38:51;12.27;;;3.72;;
55455;SDS011;63021;52.836;6.376;2022-11-25T00:41:25;19.38;;;4.25;;
55455;SDS011;63021;52.836;6.376;2022-11-25T00:44:11;12.80;;;3.30;;
55455;SDS011;63021;52.836;6.376;2022-11-25T00:46:56;19.75;;;4.72;;
55455;SDS011;63021;52.836;6.376;2022-11-25T00:49:22;13.70;;;3.33;;
55455;SDS011;63021;52.836;6.376;2022-11-25T00:51:48;17.25;;;3.53;;
55455;SDS011;63021;52.836;6.376;2022-11-25T00:54:13;10.73;;;2.92;;
55455;SDS011;63021;52.836;6.376;2022-11-25T00:56:38;13.13;;;3.15;;
55455;SDS011;63021;52.836;6.376;2022-11-25T00:59:05;17.60;;;4.25;;
55455;SDS011;63021;52.836;6.376;2022-11-25T01:01:30;13.20;;;3.47;;
55455;SDS011;63021;52.836;6.376;2022-11-25T01:03:56;12.90;;;3.55;;
55455;SDS011;63021;52.836;6.376;2022-11-25T01:06:21;23.52;;;4.00;;
55455;SDS011;63021;52.836;6.376;2022-11-25T01:08:47;20.27;;;4.47;;
55455;SDS011;63021;52.836;6.376;2022-11-25T01:11:13;10.90;;;3.60;;
55455;SDS011;63021;52.836;6.376;2022-11-25T01:13:41;14.40;;;4.57;;
55455;SDS011;63021;52.836;6.376;2022-11-25T01:16:07;18.52;;;4.07;;
55455;SDS011;63021;52.836;6.376;2022-11-25T01:18:35;12.63;;;3.72;;
55455;SDS011;63021;52.836;6.376;2022-11-25T01:23:36;14.80;;;4.10;;
55455;SDS011;63021;52.836;6.376;2022-11-25T01:26:03;13.70;;;3.00;;
55455;SDS011;63021;52.836;6.376;2022-11-25T01:28:30;18.60;;;4.00;;
55455;SDS011;63021;52.836;6.376;2022-11-25T01:30:59;20.35;;;4.00;;
55455;SDS011;63021;52.836;6.376;2022-11-25T01:33:24;15.85;;;3.78;;
55455;SDS011;63021;52.836;6.376;2022-11-25T01:35:50;15.05;;;3.60;;
55455;SDS011;63021;52.836;6.376;2022-11-25T01:38:15;17.45;;;3.90;;
55455;SDS011;63021;52.836;6.376;2022-11-25T01:40:41;17.75;;;3.97;;
55455;SDS011;63021;52.836;6.376;2022-11-25T01:43:11;11.85;;;3.75;;
55455;SDS011;63021;52.836;6.376;2022-11-25T01:45:38;14.45;;;3.33;;
55455;SDS011;63021;52.836;6.376;2022-11-25T01:48:05;18.98;;;5.53;;
55455;SDS011;63021;52.836;6.376;2022-11-25T01:50:38;15.00;;;3.65;;
55455;SDS011;63021;52.836;6.376;2022-11-25T01:53:06;17.17;;;3.70;;
55455;SDS011;63021;52.836;6.376;2022-11-25T01:55:35;19.08;;;4.10;;
55455;SDS011;63021;52.836;6.376;2022-11-25T01:58:12;12.60;;;4.57;;
55455;SDS011;63021;52.836;6.376;2022-11-25T02:00:44;14.38;;;4.80;;
55455;SDS011;63021;52.836;6.376;2022-11-25T02:03:26;18.13;;;4.53;;
55455;SDS011;63021;52.836;6.376;2022-11-25T02:08:41;15.73;;;5.10;;
55455;SDS011;63021;52.836;6.376;2022-11-25T02:11:10;15.75;;;3.95;;
55455;SDS011;63021;52.836;6.376;2022-11-25T02:13:38;15.75;;;3.22;;
55455;SDS011;63021;52.836;6.376;2022-11-25T02:16:04;11.07;;;3.47;;
55455;SDS011;63021;52.836;6.376;2022-11-25T02:18:29;18.05;;;4.47;;
55455;SDS011;63021;52.836;6.376;2022-11-25T02:20:55;15.10;;;3.63;;
55455;SDS011;63021;52.836;6.376;2022-11-25T02:23:30;20.30;;;4.47;;
55455;SDS011;63021;52.836;6.376;2022-11-25T02:26:11;23.02;;;4.57;;
55455;SDS011;63021;52.836;6.376;2022-11-25T02:28:37;12.68;;;3.63;;
55455;SDS011;63021;52.836;6.376;2022-11-25T02:31:03;12.40;;;3.85;;
55455;SDS011;63021;52.836;6.376;2022-11-25T02:33:31;18.35;;;4.88;;
55455;SDS011;63021;52.836;6.376;2022-11-25T02:36:06;18.95;;;5.10;;
55455;SDS011;63021;52.836;6.376;2022-11-25T02:38:49;20.80;;;4.50;;
55455;SDS011;63021;52.836;6.376;2022-11-25T02:41:20;19.20;;;5.03;;
55455;SDS011;63021;52.836;6.376;2022-11-25T02:43:50;18.67;;;4.88;;
55455;SDS011;63021;52.836;6.376;2022-11-25T02:46:16;21.10;;;4.25;;
55455;SDS011;63021;52.836;6.376;2022-11-25T02:48:44;19.27;;;5.47;;
55455;SDS011;63021;52.836;6.376;2022-11-25T02:51:10;17.38;;;4.63;;
55455;SDS011;63021;52.836;6.376;2022-11-25T02:53:39;14.77;;;6.10;;
55455;SDS011;63021;52.836;6.376;2022-11-25T02:56:05;16.92;;;5.35;;
55455;SDS011;63021;52.836;6.376;2022-11-25T02:58:31;17.40;;;5.18;;
55455;SDS011;63021;52.836;6.376;2022-11-25T03:00:56;12.70;;;5.10;;
55455;SDS011;63021;52.836;6.376;2022-11-25T03:03:22;15.85;;;4.95;;
55455;SDS011;63021;52.836;6.376;2022-11-25T03:05:47;14.10;;;4.53;;
55455;SDS011;63021;52.836;6.376;2022-11-25T03:08:14;20.33;;;5.75;;
55455;SDS011;63021;52.836;6.376;2022-11-25T03:10:40;17.25;;;5.95;;
55455;SDS011;63021;52.836;6.376;2022-11-25T03:13:06;21.75;;;5.80;;
55455;SDS011;63021;52.836;6.376;2022-11-25T03:15:33;26.17;;;5.85;;
55455;SDS011;63021;52.836;6.376;2022-11-25T03:18:00;15.80;;;5.68;;
55455;SDS011;63021;52.836;6.376;2022-11-25T03:20:26;16.65;;;5.43;;
55455;SDS011;63021;52.836;6.376;2022-11-25T03:22:52;22.83;;;6.20;;
55455;SDS011;63021;52.836;6.376;2022-11-25T03:25:18;17.58;;;5.82;;
55455;SDS011;63021;52.836;6.376;2022-11-25T03:27:46;20.85;;;5.95;;
55455;SDS011;63021;52.836;6.376;2022-11-25T03:30:15;19.88;;;6.72;;
55455;SDS011;63021;52.836;6.376;2022-11-25T03:32:47;16.60;;;6.05;;
55455;SDS011;63021;52.836;6.376;2022-11-25T03:35:13;22.40;;;6.30;;
55455;SDS011;63021;52.836;6.376;2022-11-25T03:37:39;15.65;;;5.55;;
55455;SDS011;63021;52.836;6.376;2022-11-25T03:40:05;18.27;;;7.38;;
55455;SDS011;63021;52.836;6.376;2022-11-25T03:42:31;19.10;;;5.93;;
55455;SDS011;63021;52.836;6.376;2022-11-25T03:44:57;23.60;;;7.43;;
55455;SDS011;63021;52.836;6.376;2022-11-25T03:47:22;26.55;;;5.72;;
55455;SDS011;63021;52.836;6.376;2022-11-25T03:49:48;26.50;;;6.35;;
55455;SDS011;63021;52.836;6.376;2022-11-25T03:52:13;22.95;;;7.03;;
55455;SDS011;63021;52.836;6.376;2022-11-25T03:54:38;23.23;;;6.95;;
55455;SDS011;63021;52.836;6.376;2022-11-25T03:57:04;18.20;;;6.32;;
55455;SDS011;63021;52.836;6.376;2022-11-25T03:59:29;26.17;;;6.82;;
55455;SDS011;63021;52.836;6.376;2022-11-25T04:01:56;21.27;;;6.25;;
55455;SDS011;63021;52.836;6.376;2022-11-25T04:04:21;19.88;;;5.70;;
55455;SDS011;63021;52.836;6.376;2022-11-25T04:06:46;25.50;;;6.30;;
55455;SDS011;63021;52.836;6.376;2022-11-25T04:09:12;12.80;;;6.43;;
55455;SDS011;63021;52.836;6.376;2022-11-25T04:11:37;23.95;;;6.18;;
55455;SDS011;63021;52.836;6.376;2022-11-25T04:14:22;19.75;;;5.78;;
55455;SDS011;63021;52.836;6.376;2022-11-25T04:16:47;15.40;;;5.63;;
55455;SDS011;63021;52.836;6.376;2022-11-25T04:19:12;19.00;;;6.65;;
55455;SDS011;63021;52.836;6.376;2022-11-25T04:21:38;17.33;;;5.82;;
55455;SDS011;63021;52.836;6.376;2022-11-25T04:24:03;24.15;;;6.68;;
55455;SDS011;63021;52.836;6.376;2022-11-25T04:26:29;25.88;;;5.88;;
55455;SDS011;63021;52.836;6.376;2022-11-25T04:28:54;14.25;;;6.38;;
55455;SDS011;63021;52.836;6.376;2022-11-25T04:31:20;18.23;;;5.00;;
55455;SDS011;63021;52.836;6.376;2022-11-25T04:33:45;20.00;;;6.03;;
55455;SDS011;63021;52.836;6.376;2022-11-25T04:36:11;21.83;;;5.97;;
55455;SDS011;63021;52.836;6.376;2022-11-25T04:38:36;18.48;;;5.68;;
55455;SDS011;63021;52.836;6.376;2022-11-25T04:41:02;14.15;;;5.90;;
55455;SDS011;63021;52.836;6.376;2022-11-25T04:43:27;21.33;;;5.22;;
55455;SDS011;63021;52.836;6.376;2022-11-25T04:45:53;20.58;;;7.03;;
55455;SDS011;63021;52.836;6.376;2022-11-25T04:48:19;17.23;;;6.10;;
55455;SDS011;63021;52.836;6.376;2022-11-25T04:50:44;16.35;;;5.40;;
55455;SDS011;63021;52.836;6.376;2022-11-25T04:53:10;17.38;;;5.65;;
55455;SDS011;63021;52.836;6.376;2022-11-25T04:55:35;20.95;;;5.55;;
55455;SDS011;63021;52.836;6.376;2022-11-25T04:58:01;16.02;;;6.38;;
55455;SDS011;63021;52.836;6.376;2022-11-25T05:00:26;18.98;;;5.85;;
55455;SDS011;63021;52.836;6.376;2022-11-25T05:02:52;26.42;;;6.75;;
55455;SDS011;63021;52.836;6.376;2022-11-25T05:05:17;18.70;;;4.95;;
55455;SDS011;63021;52.836;6.376;2022-11-25T05:07:42;19.10;;;5.95;;
55455;SDS011;63021;52.836;6.376;2022-11-25T05:10:08;27.77;;;7.78;;
55455;SDS011;63021;52.836;6.376;2022-11-25T05:12:33;22.88;;;5.95;;
55455;SDS011;63021;52.836;6.376;2022-11-25T05:14:59;16.85;;;6.47;;
55455;SDS011;63021;52.836;6.376;2022-11-25T05:17:26;21.92;;;6.00;;
55455;SDS011;63021;52.836;6.376;2022-11-25T05:19:53;22.60;;;5.93;;
55455;SDS011;63021;52.836;6.376;2022-11-25T05:22:20;18.45;;;5.70;;
55455;SDS011;63021;52.836;6.376;2022-11-25T05:24:47;17.95;;;5.80;;
55455;SDS011;63021;52.836;6.376;2022-11-25T05:27:13;26.70;;;7.60;;
55455;SDS011;63021;52.836;6.376;2022-11-25T05:29:39;19.83;;;7.57;;
55455;SDS011;63021;52.836;6.376;2022-11-25T05:32:05;16.63;;;6.15;;
55455;SDS011;63021;52.836;6.376;2022-11-25T05:34:30;18.08;;;6.30;;
55455;SDS011;63021;52.836;6.376;2022-11-25T05:36:56;20.88;;;5.90;;
55455;SDS011;63021;52.836;6.376;2022-11-25T05:39:22;18.10;;;5.25;;
55455;SDS011;63021;52.836;6.376;2022-11-25T05:41:47;22.48;;;5.72;;
55455;SDS011;63021;52.836;6.376;2022-11-25T05:44:13;23.27;;;5.57;;
55455;SDS011;63021;52.836;6.376;2022-11-25T05:46:38;16.95;;;6.18;;
55455;SDS011;63021;52.836;6.376;2022-11-25T05:49:03;23.85;;;5.72;;
55455;SDS011;63021;52.836;6.376;2022-11-25T05:51:29;18.90;;;6.05;;
55455;SDS011;63021;52.836;6.376;2022-11-25T05:53:55;18.58;;;5.45;;
55455;SDS011;63021;52.836;6.376;2022-11-25T05:56:21;23.88;;;7.07;;
55455;SDS011;63021;52.836;6.376;2022-11-25T05:58:47;19.30;;;5.93;;
55455;SDS011;63021;52.836;6.376;2022-11-25T06:01:13;15.40;;;5.45;;
55455;SDS011;63021;52.836;6.376;2022-11-25T06:03:39;18.15;;;5.10;;
55455;SDS011;63021;52.836;6.376;2022-11-25T06:06:06;22.45;;;5.28;;
55455;SDS011;63021;52.836;6.376;2022-11-25T06:08:32;11.98;;;4.75;;
55455;SDS011;63021;52.836;6.376;2022-11-25T06:11:02;18.85;;;4.55;;
55455;SDS011;63021;52.836;6.376;2022-11-25T06:13:31;13.05;;;4.40;;
55455;SDS011;63021;52.836;6.376;2022-11-25T06:15:57;14.55;;;5.28;;
55455;SDS011;63021;52.836;6.376;2022-11-25T06:18:22;14.20;;;4.38;;
55455;SDS011;63021;52.836;6.376;2022-11-25T06:20:55;16.45;;;5.13;;
55455;SDS011;63021;52.836;6.376;2022-11-25T06:23:21;16.13;;;4.97;;
55455;SDS011;63021;52.836;6.376;2022-11-25T06:25:47;13.25;;;4.10;;
55455;SDS011;63021;52.836;6.376;2022-11-25T06:28:12;10.43;;;4.07;;
55455;SDS011;63021;52.836;6.376;2022-11-25T06:30:38;14.23;;;4.85;;
55455;SDS011;63021;52.836;6.376;2022-11-25T06:33:03;12.10;;;3.40;;
55455;SDS011;63021;52.836;6.376;2022-11-25T06:35:28;12.75;;;4.53;;
55455;SDS011;63021;52.836;6.376;2022-11-25T06:37:54;15.73;;;4.35;;
55455;SDS011;63021;52.836;6.376;2022-11-25T06:40:19;14.63;;;3.85;;
55455;SDS011;63021;52.836;6.376;2022-11-25T06:42:44;10.80;;;4.10;;
55455;SDS011;63021;52.836;6.376;2022-11-25T06:45:10;13.10;;;4.10;;
55455;SDS011;63021;52.836;6.376;2022-11-25T06:47:35;16.48;;;3.90;;
55455;SDS011;63021;52.836;6.376;2022-11-25T06:50:01;15.13;;;3.75;;
55455;SDS011;63021;52.836;6.376;2022-11-25T06:52:27;16.48;;;3.03;;
55455;SDS011;63021;52.836;6.376;2022-11-25T06:54:54;9.50;;;4.32;;
55455;SDS011;63021;52.836;6.376;2022-11-25T06:57:20;14.88;;;3.80;;
55455;SDS011;63021;52.836;6.376;2022-11-25T06:59:45;12.00;;;3.72;;
55455;SDS011;63021;52.836;6.376;2022-11-25T07:02:11;10.00;;;4.22;;
55455;SDS011;63021;52.836;6.376;2022-11-25T07:04:37;9.77;;;2.80;;
55455;SDS011;63021;52.836;6.376;2022-11-25T07:07:04;13.50;;;3.22;;
55455;SDS011;63021;52.836;6.376;2022-11-25T07:09:30;16.88;;;3.67;;
55455;SDS011;63021;52.836;6.376;2022-11-25T07:11:55;15.65;;;3.47;;
55455;SDS011;63021;52.836;6.376;2022-11-25T07:14:20;8.32;;;4.20;;
55455;SDS011;63021;52.836;6.376;2022-11-25T07:16:46;18.15;;;5.07;;
55455;SDS011;63021;52.836;6.376;2022-11-25T07:19:12;9.35;;;3.33;;
55455;SDS011;63021;52.836;6.376;2022-11-25T07:21:39;12.25;;;3.42;;
55455;SDS011;63021;52.836;6.376;2022-11-25T07:24:08;11.43;;;3.15;;
55455;SDS011;63021;52.836;6.376;2022-11-25T07:26:34;13.85;;;3.15;;
55455;SDS011;63021;52.836;6.376;2022-11-25T07:29:03;14.40;;;3.95;;
55455;SDS011;63021;52.836;6.376;2022-11-25T07:31:31;13.27;;;3.22;;
55455;SDS011;63021;52.836;6.376;2022-11-25T07:33:59;14.75;;;3.55;;
55455;SDS011;63021;52.836;6.376;2022-11-25T07:36:25;11.80;;;3.88;;
55455;SDS011;63021;52.836;6.376;2022-11-25T07:38:51;13.95;;;3.60;;
55455;SDS011;63021;52.836;6.376;2022-11-25T07:41:18;13.43;;;3.67;;
55455;SDS011;63021;52.836;6.376;2022-11-25T07:43:46;10.13;;;3.33;;
55455;SDS011;63021;52.836;6.376;2022-11-25T07:46:14;12.35;;;3.33;;
55455;SDS011;63021;52.836;6.376;2022-11-25T07:48:42;8.82;;;3.05;;
55455;SDS011;63021;52.836;6.376;2022-11-25T07:51:16;8.50;;;3.55;;
55455;SDS011;63021;52.836;6.376;2022-11-25T07:53:41;12.60;;;3.47;;
55455;SDS011;63021;52.836;6.376;2022-11-25T07:56:07;8.25;;;3.97;;
55455;SDS011;63021;52.836;6.376;2022-11-25T07:58:33;11.50;;;3.83;;
55455;SDS011;63021;52.836;6.376;2022-11-25T08:01:04;8.40;;;3.35;;
55455;SDS011;63021;52.836;6.376;2022-11-25T08:03:32;13.55;;;4.55;;
55455;SDS011;63021;52.836;6.376;2022-11-25T08:05:59;10.43;;;3.75;;
55455;SDS011;63021;52.836;6.376;2022-11-25T08:08:28;9.77;;;4.18;;
55455;SDS011;63021;52.836;6.376;2022-11-25T08:10:53;14.52;;;5.97;;
55455;SDS011;63021;52.836;6.376;2022-11-25T08:13:19;14.57;;;4.35;;
55455;SDS011;63021;52.836;6.376;2022-11-25T08:15:44;9.20;;;5.07;;
55455;SDS011;63021;52.836;6.376;2022-11-25T08:18:10;10.43;;;4.38;;
55455;SDS011;63021;52.836;6.376;2022-11-25T08:20:35;15.77;;;4.32;;
55455;SDS011;63021;52.836;6.376;2022-11-25T08:23:01;12.57;;;4.32;;
55455;SDS011;63021;52.836;6.376;2022-11-25T08:25:26;12.90;;;3.80;;
55455;SDS011;63021;52.836;6.376;2022-11-25T08:27:53;14.88;;;4.53;;
55455;SDS011;63021;52.836;6.376;2022-11-25T08:30:19;10.25;;;4.65;;
55455;SDS011;63021;52.836;6.376;2022-11-25T08:32:48;8.77;;;4.57;;
55455;SDS011;63021;52.836;6.376;2022-11-25T08:35:13;6.20;;;3.85;;
55455;SDS011;63021;52.836;6.376;2022-11-25T08:37:39;9.95;;;3.75;;
55455;SDS011;63021;52.836;6.376;2022-11-25T08:40:04;14.77;;;4.63;;
55455;SDS011;63021;52.836;6.376;2022-11-25T08:42:30;16.88;;;4.90;;
55455;SDS011;63021;52.836;6.376;2022-11-25T08:44:56;8.98;;;4.20;;
55455;SDS011;63021;52.836;6.376;2022-11-25T08:47:22;8.02;;;4.05;;
55455;SDS011;63021;52.836;6.376;2022-11-25T08:49:51;11.35;;;4.05;;
55455;SDS011;63021;52.836;6.376;2022-11-25T08:52:18;14.93;;;5.05;;
55455;SDS011;63021;52.836;6.376;2022-11-25T08:54:44;12.82;;;4.88;;
55455;SDS011;63021;52.836;6.376;2022-11-25T08:57:10;10.68;;;4.43;;
55455;SDS011;63021;52.836;6.376;2022-11-25T08:59:35;6.47;;;4.10;;
55455;SDS011;63021;52.836;6.376;2022-11-25T09:02:01;13.27;;;4.65;;
55455;SDS011;63021;52.836;6.376;2022-11-25T09:04:27;14.00;;;4.93;;
55455;SDS011;63021;52.836;6.376;2022-11-25T09:06:52;17.50;;;4.97;;
55455;SDS011;63021;52.836;6.376;2022-11-25T09:09:18;9.10;;;4.15;;
55455;SDS011;63021;52.836;6.376;2022-11-25T09:11:43;10.88;;;4.45;;
55455;SDS011;63021;52.836;6.376;2022-11-25T09:14:09;10.93;;;5.53;;
55455;SDS011;63021;52.836;6.376;2022-11-25T09:16:34;11.98;;;5.15;;
55455;SDS011;63021;52.836;6.376;2022-11-25T09:19:00;13.27;;;4.97;;
55455;SDS011;63021;52.836;6.376;2022-11-25T09:21:25;12.30;;;5.00;;
55455;SDS011;63021;52.836;6.376;2022-11-25T09:23:51;8.68;;;4.40;;
55455;SDS011;63021;52.836;6.376;2022-11-25T09:26:22;8.35;;;4.50;;
55455;SDS011;63021;52.836;6.376;2022-11-25T09:28:49;11.15;;;4.63;;
55455;SDS011;63021;52.836;6.376;2022-11-25T09:31:16;9.93;;;4.45;;
55455;SDS011;63021;52.836;6.376;2022-11-25T09:33:42;11.50;;;4.63;;
55455;SDS011;63021;52.836;6.376;2022-11-25T09:36:08;9.95;;;5.25;;
55455;SDS011;63021;52.836;6.376;2022-11-25T09:38:35;9.10;;;4.07;;
55455;SDS011;63021;52.836;6.376;2022-11-25T09:41:05;10.38;;;4.63;;
55455;SDS011;63021;52.836;6.376;2022-11-25T10:00:12;6.22;;;4.07;;
55455;SDS011;63021;52.836;6.376;2022-11-25T10:05:30;8.45;;;4.20;;
55455;SDS011;63021;52.836;6.376;2022-11-25T10:08:10;8.48;;;4.20;;
55455;SDS011;63021;52.836;6.376;2022-11-25T10:10:49;14.85;;;4.30;;
55455;SDS011;63021;52.836;6.376;2022-11-25T10:13:20;8.25;;;4.15;;
55455;SDS011;63021;52.836;6.376;2022-11-25T10:15:51;18.52;;;5.38;;
55455;SDS011;63021;52.836;6.376;2022-11-25T10:18:26;10.35;;;4.53;;
55455;SDS011;63021;52.836;6.376;2022-11-25T10:21:02;8.40;;;3.58;;
55455;SDS011;63021;52.836;6.376;2022-11-25T10:23:31;9.45;;;4.07;;
55455;SDS011;63021;52.836;6.376;2022-11-25T10:26:21;7.97;;;4.80;;
55455;SDS011;63021;52.836;6.376;2022-11-25T10:31:37;9.90;;;3.90;;
55455;SDS011;63021;52.836;6.376;2022-11-25T10:34:24;6.60;;;3.35;;
55455;SDS011;63021;52.836;6.376;2022-11-25T10:36:55;10.90;;;3.95;;
55455;SDS011;63021;52.836;6.376;2022-11-25T10:39:23;13.38;;;4.28;;
55455;SDS011;63021;52.836;6.376;2022-11-25T10:47:00;11.43;;;4.13;;
55455;SDS011;63021;52.836;6.376;2022-11-25T10:49:45;7.40;;;3.67;;
55455;SDS011;63021;52.836;6.376;2022-11-25T10:52:34;10.68;;;4.22;;
55455;SDS011;63021;52.836;6.376;2022-11-25T10:55:14;12.80;;;3.88;;
55455;SDS011;63021;52.836;6.376;2022-11-25T10:57:43;10.98;;;4.88;;
55455;SDS011;63021;52.836;6.376;2022-11-25T11:00:28;9.05;;;4.00;;
55455;SDS011;63021;52.836;6.376;2022-11-25T11:03:00;6.40;;;3.40;;
55455;SDS011;63021;52.836;6.376;2022-11-25T11:05:45;12.18;;;4.55;;
55455;SDS011;63021;52.836;6.376;2022-11-25T11:11:09;15.80;;;4.00;;
55455;SDS011;63021;52.836;6.376;2022-11-25T11:13:37;12.98;;;4.00;;
55455;SDS011;63021;52.836;6.376;2022-11-25T11:16:03;12.13;;;4.50;;
55455;SDS011;63021;52.836;6.376;2022-11-25T11:18:44;13.38;;;3.92;;
55455;SDS011;63021;52.836;6.376;2022-11-25T11:21:23;10.50;;;3.70;;
55455;SDS011;63021;52.836;6.376;2022-11-25T11:23:57;10.98;;;3.72;;
55455;SDS011;63021;52.836;6.376;2022-11-25T11:26:25;4.35;;;2.60;;
55455;SDS011;63021;52.836;6.376;2022-11-25T11:31:52;13.48;;;3.97;;
55455;SDS011;63021;52.836;6.376;2022-11-25T11:34:39;10.13;;;2.95;;
55455;SDS011;63021;52.836;6.376;2022-11-25T11:45:49;12.68;;;3.75;;
55455;SDS011;63021;52.836;6.376;2022-11-25T11:51:17;9.65;;;3.65;;
55455;SDS011;63021;52.836;6.376;2022-11-25T12:04:24;11.38;;;3.88;;
55455;SDS011;63021;52.836;6.376;2022-11-25T12:07:02;8.68;;;2.70;;
55455;SDS011;63021;52.836;6.376;2022-11-25T12:09:30;11.88;;;4.05;;
55455;SDS011;63021;52.836;6.376;2022-11-25T12:12:02;23.55;;;3.97;;
55455;SDS011;63021;52.836;6.376;2022-11-25T12:14:46;8.38;;;2.53;;
55455;SDS011;63021;52.836;6.376;2022-11-25T12:17:22;11.73;;;3.40;;
55455;SDS011;63021;52.836;6.376;2022-11-25T12:19:57;16.25;;;3.83;;
55455;SDS011;63021;52.836;6.376;2022-11-25T12:22:31;10.70;;;3.13;;
55455;SDS011;63021;52.836;6.376;2022-11-25T12:25:05;8.55;;;2.28;;
55455;SDS011;63021;52.836;6.376;2022-11-25T12:32:55;12.32;;;3.95;;
55455;SDS011;63021;52.836;6.376;2022-11-25T12:35:35;11.80;;;3.03;;
55455;SDS011;63021;52.836;6.376;2022-11-25T12:38:24;14.10;;;2.55;;
55455;SDS011;63021;52.836;6.376;2022-11-25T12:44:07;12.00;;;3.05;;
55455;SDS011;63021;52.836;6.376;2022-11-25T12:49:26;7.60;;;2.72;;
55455;SDS011;63021;52.836;6.376;2022-11-25T12:57:21;17.17;;;4.00;;
55455;SDS011;63021;52.836;6.376;2022-11-25T13:14:17;16.45;;;3.15;;
55455;SDS011;63021;52.836;6.376;2022-11-25T13:16:45;22.42;;;3.92;;
55455;SDS011;63021;52.836;6.376;2022-11-25T13:19:15;9.60;;;3.10;;
55455;SDS011;63021;52.836;6.376;2022-11-25T13:21:58;6.60;;;2.20;;
55455;SDS011;63021;52.836;6.376;2022-11-25T13:26:58;20.70;;;4.75;;
55455;SDS011;63021;52.836;6.376;2022-11-25T13:36:51;14.45;;;3.28;;
55455;SDS011;63021;52.836;6.376;2022-11-25T13:39:28;18.70;;;3.50;;
55455;SDS011;63021;52.836;6.376;2022-11-25T13:42:27;14.95;;;2.55;;
55455;SDS011;63021;52.836;6.376;2022-11-25T13:44:49;17.52;;;2.80;;
55455;SDS011;63021;52.836;6.376;2022-11-25T13:47:30;12.95;;;2.50;;
55455;SDS011;63021;52.836;6.376;2022-11-25T13:50:06;16.80;;;3.33;;
55455;SDS011;63021;52.836;6.376;2022-11-25T13:52:47;14.30;;;3.33;;
55455;SDS011;63021;52.836;6.376;2022-11-25T13:57:40;14.55;;;3.65;;
55455;SDS011;63021;52.836;6.376;2022-11-25T14:02:44;18.25;;;3.25;;
55455;SDS011;63021;52.836;6.376;2022-11-25T14:08:37;19.65;;;3.20;;
55455;SDS011;63021;52.836;6.376;2022-11-25T14:24:43;16.95;;;3.10;;
55455;SDS011;63021;52.836;6.376;2022-11-25T14:27:23;13.48;;;3.17;;
55455;SDS011;63021;52.836;6.376;2022-11-25T14:29:54;19.17;;;4.22;;
55455;SDS011;63021;52.836;6.376;2022-11-25T14:32:23;21.27;;;4.28;;
55455;SDS011;63021;52.836;6.376;2022-11-25T14:35:17;15.77;;;3.67;;
55455;SDS011;63021;52.836;6.376;2022-11-25T14:37:50;16.30;;;3.13;;
55455;SDS011;63021;52.836;6.376;2022-11-25T14:40:22;16.52;;;4.15;;
55455;SDS011;63021;52.836;6.376;2022-11-25T14:42:52;14.10;;;3.15;;
55455;SDS011;63021;52.836;6.376;2022-11-25T14:45:24;8.95;;;2.47;;
55455;SDS011;63021;52.836;6.376;2022-11-25T14:47:49;15.50;;;2.88;;
55455;SDS011;63021;52.836;6.376;2022-11-25T14:50:15;13.15;;;3.70;;
55455;SDS011;63021;52.836;6.376;2022-11-25T14:52:43;12.10;;;4.22;;
55455;SDS011;63021;52.836;6.376;2022-11-25T14:55:11;12.07;;;3.53;;
55455;SDS011;63021;52.836;6.376;2022-11-25T14:57:47;9.88;;;2.90;;
55455;SDS011;63021;52.836;6.376;2022-11-25T15:00:13;10.57;;;3.67;;
55455;SDS011;63021;52.836;6.376;2022-11-25T15:02:50;11.65;;;2.92;;
55455;SDS011;63021;52.836;6.376;2022-11-25T15:05:29;12.52;;;3.72;;
55455;SDS011;63021;52.836;6.376;2022-11-25T15:08:17;16.30;;;3.05;;
55455;SDS011;63021;52.836;6.376;2022-11-25T15:10:55;17.70;;;3.75;;
55455;SDS011;63021;52.836;6.376;2022-11-25T15:15:49;16.80;;;3.53;;
55455;SDS011;63021;52.836;6.376;2022-11-25T15:18:16;13.25;;;4.10;;
55455;SDS011;63021;52.836;6.376;2022-11-25T15:20:49;14.18;;;2.80;;
55455;SDS011;63021;52.836;6.376;2022-11-25T15:23:22;13.85;;;4.30;;
55455;SDS011;63021;52.836;6.376;2022-11-25T15:25:52;16.08;;;4.15;;
55455;SDS011;63021;52.836;6.376;2022-11-25T15:28:18;22.33;;;5.05;;
55455;SDS011;63021;52.836;6.376;2022-11-25T15:30:55;14.40;;;3.47;;
55455;SDS011;63021;52.836;6.376;2022-11-25T15:33:22;15.60;;;3.63;;
55455;SDS011;63021;52.836;6.376;2022-11-25T15:35:49;16.38;;;3.80;;
55455;SDS011;63021;52.836;6.376;2022-11-25T15:41:00;16.45;;;5.07;;
55455;SDS011;63021;52.836;6.376;2022-11-25T15:43:28;15.10;;;4.85;;
55455;SDS011;63021;52.836;6.376;2022-11-25T15:45:55;17.55;;;7.10;;
55455;SDS011;63021;52.836;6.376;2022-11-25T15:57:01;9.13;;;4.72;;
55455;SDS011;63021;52.836;6.376;2022-11-25T16:18:37;10.40;;;3.00;;
55455;SDS011;63021;52.836;6.376;2022-11-25T16:21:12;14.45;;;5.85;;
55455;SDS011;63021;52.836;6.376;2022-11-25T16:23:43;9.60;;;3.30;;
55455;SDS011;63021;52.836;6.376;2022-11-25T16:26:14;15.05;;;3.70;;
55455;SDS011;63021;52.836;6.376;2022-11-25T16:28:52;14.02;;;3.28;;
55455;SDS011;63021;52.836;6.376;2022-11-25T16:31:19;8.43;;;3.63;;
55455;SDS011;63021;52.836;6.376;2022-11-25T16:33:45;9.88;;;5.15;;
55455;SDS011;63021;52.836;6.376;2022-11-25T16:36:10;17.63;;;7.15;;
55455;SDS011;63021;52.836;6.376;2022-11-25T16:38:38;16.45;;;7.75;;
55455;SDS011;63021;52.836;6.376;2022-11-25T16:41:07;18.13;;;8.00;;
55455;SDS011;63021;52.836;6.376;2022-11-25T16:43:35;16.05;;;7.90;;
55455;SDS011;63021;52.836;6.376;2022-11-25T16:46:03;22.42;;;6.57;;
55455;SDS011;63021;52.836;6.376;2022-11-25T16:48:29;17.20;;;7.00;;
55455;SDS011;63021;52.836;6.376;2022-11-25T16:50:54;17.77;;;5.97;;
55455;SDS011;63021;52.836;6.376;2022-11-25T16:53:21;22.00;;;6.72;;
55455;SDS011;63021;52.836;6.376;2022-11-25T16:55:46;11.30;;;6.22;;
55455;SDS011;63021;52.836;6.376;2022-11-25T16:58:22;14.95;;;6.22;;
55455;SDS011;63021;52.836;6.376;2022-11-25T17:00:49;10.52;;;5.40;;
55455;SDS011;63021;52.836;6.376;2022-11-25T17:03:17;16.20;;;4.78;;
55455;SDS011;63021;52.836;6.376;2022-11-25T17:05:44;13.05;;;6.03;;
55455;SDS011;63021;52.836;6.376;2022-11-25T17:08:11;13.13;;;5.75;;
55455;SDS011;63021;52.836;6.376;2022-11-25T17:10:37;18.30;;;6.20;;
55455;SDS011;63021;52.836;6.376;2022-11-25T17:13:19;17.42;;;6.32;;
55455;SDS011;63021;52.836;6.376;2022-11-25T17:15:47;19.58;;;8.13;;
55455;SDS011;63021;52.836;6.376;2022-11-25T17:18:14;18.13;;;7.47;;
55455;SDS011;63021;52.836;6.376;2022-11-25T17:20:42;17.02;;;6.25;;
55455;SDS011;63021;52.836;6.376;2022-11-25T17:23:13;17.83;;;5.70;;